Terminal Aerodrome Forecast
Issued by NWS Buffalo, NY

Home | Current Version | Previous Version | Text Only | Print | Product List | Glossary On
Versions: 1 2 3 4 5 6 7 8 9 10 11 12 13 14 15 16 17 18 19 20 21 22
000
FTUS41 KBUF 010538
TAFROC
TAF
KROC 010538Z 0106/0206 22004KT 5SM BR SKC
     FM010800 VRB03KT 2SM BR SCT005
     FM011100 24004KT 2SM BR BKN007
     FM011400 VRB03KT P6SM FEW250
     FM012000 33004KT P6SM FEW250
     FM020300 20004KT P6SM FEW250=

USA.gov is the U.S. government's official web portal to all federal, state and local government web resources and services.